sensor_id;sensor_type;location;lat;lon;timestamp;pressure;altitude;pressure_sealevel;temperature;humidity
32759;BME280;19125;52.360;9.974;2024-01-07T00:01:36;1114.53;;;-145.17;75.13
32759;BME280;19125;52.360;9.974;2024-01-07T00:04:01;1611.72;;;-145.17;74.88
32759;BME280;19125;52.360;9.974;2024-01-07T00:06:26;2108.97;;;-145.17;74.81
32759;BME280;19125;52.360;9.974;2024-01-07T00:08:52;2357.59;;;-145.17;74.98
32759;BME280;19125;52.360;9.974;2024-01-07T00:11:17;2606.25;;;-145.17;74.90
32759;BME280;19125;52.360;9.974;2024-01-07T00:13:43;3103.63;;;-145.17;74.90
32759;BME280;19125;52.360;9.974;2024-01-07T00:16:08;3103.63;;;-145.17;74.98
32759;BME280;19125;52.360;9.974;2024-01-07T00:18:33;3352.34;;;-145.17;74.63
32759;BME280;19125;52.360;9.974;2024-01-07T00:20:59;3352.34;;;-145.17;75.09
32759;BME280;19125;52.360;9.974;2024-01-07T00:23:24;3103.63;;;-145.17;75.00
32759;BME280;19125;52.360;9.974;2024-01-07T00:25:49;3103.63;;;-145.17;75.42
32759;BME280;19125;52.360;9.974;2024-01-07T00:28:16;2854.94;;;-145.17;75.25
32759;BME280;19125;52.360;9.974;2024-01-07T00:30:41;2606.25;;;-145.17;75.14
32759;BME280;19125;52.360;9.974;2024-01-07T00:33:07;2108.97;;;-145.17;75.25
32759;BME280;19125;52.360;9.974;2024-01-07T00:35:32;1860.31;;;-145.17;75.60
32759;BME280;19125;52.360;9.974;2024-01-07T00:37:58;1611.72;;;-145.17;75.46
32759;BME280;19125;52.360;9.974;2024-01-07T00:40:25;1114.53;;;-145.17;75.94
32759;BME280;19125;52.360;9.974;2024-01-07T00:42:51;865.97;;;-145.17;75.68
32759;BME280;19125;52.360;9.974;2024-01-07T00:45:17;368.88;;;-145.17;75.87
32759;BME280;19125;52.360;9.974;2024-01-07T00:47:42;120.34;;;-145.17;75.97
32759;BME280;19125;52.360;9.974;2024-01-07T00:50:08;-376.63;;;-145.17;75.93
32759;BME280;19125;52.360;9.974;2024-01-07T00:52:33;-625.09;;;-145.17;75.90
32759;BME280;19125;52.360;9.974;2024-01-07T00:55:00;-625.09;;;-145.17;75.70
32759;BME280;19125;52.360;9.974;2024-01-07T00:57:27;-376.63;;;-145.17;75.86
32759;BME280;19125;52.360;9.974;2024-01-07T00:59:52;-128.16;;;-145.17;75.67
32759;BME280;19125;52.360;9.974;2024-01-07T01:02:18;617.41;;;-145.17;75.29
32759;BME280;19125;52.360;9.974;2024-01-07T01:04:43;1114.53;;;-145.17;75.44
32759;BME280;19125;52.360;9.974;2024-01-07T01:07:09;2108.97;;;-145.17;75.29
32759;BME280;19125;52.360;9.974;2024-01-07T01:09:34;2854.94;;;-145.17;74.82
32759;BME280;19125;52.360;9.974;2024-01-07T01:11:59;3601.06;;;-145.17;74.57
32759;BME280;19125;52.360;9.974;2024-01-07T01:14:25;4596.16;;;-145.17;74.16
32759;BME280;19125;52.360;9.974;2024-01-07T01:16:50;5840.34;;;-145.17;74.35
32759;BME280;19125;52.360;9.974;2024-01-07T01:19:16;7084.94;;;-145.17;73.98
32759;BME280;19125;52.360;9.974;2024-01-07T01:21:43;8579.00;;;-145.17;73.87
32759;BME280;19125;52.360;9.974;2024-01-07T01:24:10;10073.63;;;-145.17;73.78
32759;BME280;19125;52.360;9.974;2024-01-07T01:26:35;11568.81;;;-145.17;73.43
32759;BME280;19125;52.360;9.974;2024-01-07T01:29:00;13064.59;;;-145.17;73.45
32759;BME280;19125;52.360;9.974;2024-01-07T01:31:26;14810.38;;;-145.17;73.13
32759;BME280;19125;52.360;9.974;2024-01-07T01:33:51;16057.88;;;-145.17;72.82
32759;BME280;19125;52.360;9.974;2024-01-07T01:36:17;17805.03;;;-145.17;72.86
32759;BME280;19125;52.360;9.974;2024-01-07T01:38:42;19552.97;;;-145.17;72.73
32759;BME280;19125;52.360;9.974;2024-01-07T01:41:07;20801.97;;;-145.17;72.45
32759;BME280;19125;52.360;9.974;2024-01-07T01:43:33;22551.25;;;-145.17;72.34
32759;BME280;19125;52.360;9.974;2024-01-07T01:45:58;23801.22;;;-145.17;72.32
32759;BME280;19125;52.360;9.974;2024-01-07T01:48:25;25051.56;;;-145.17;72.21
32759;BME280;19125;52.360;9.974;2024-01-07T01:50:52;26302.34;;;-145.17;72.10
32759;BME280;19125;52.360;9.974;2024-01-07T01:53:19;27553.50;;;-145.17;72.03
32759;BME280;19125;52.360;9.974;2024-01-07T01:55:45;28805.09;;;-145.17;71.93
32759;BME280;19125;52.360;9.974;2024-01-07T01:58:13;29556.22;;;-145.17;72.01
32759;BME280;19125;52.360;9.974;2024-01-07T02:00:38;30307.50;;;-145.17;71.77
32759;BME280;19125;52.360;9.974;2024-01-07T02:03:04;31058.91;;;-145.17;71.94
32759;BME280;19125;52.360;9.974;2024-01-07T02:05:30;31559.94;;;-145.17;71.89
32759;BME280;19125;52.360;9.974;2024-01-07T02:07:56;32061.03;;;-145.17;71.86
32759;BME280;19125;52.360;9.974;2024-01-07T02:10:22;32061.03;;;-145.17;72.14
32759;BME280;19125;52.360;9.974;2024-01-07T02:12:47;32311.59;;;-145.17;71.95
32759;BME280;19125;52.360;9.974;2024-01-07T02:15:13;32562.19;;;-145.17;71.97
32759;BME280;19125;52.360;9.974;2024-01-07T02:17:38;33063.41;;;-145.17;72.04
32759;BME280;19125;52.360;9.974;2024-01-07T02:20:04;33815.38;;;-145.17;71.95
32759;BME280;19125;52.360;9.974;2024-01-07T02:22:31;34567.47;;;-145.17;71.82
32759;BME280;19125;52.360;9.974;2024-01-07T02:24:56;35821.28;;;-145.17;71.38
32759;BME280;19125;52.360;9.974;2024-01-07T02:27:21;37075.50;;;-145.17;71.49
32759;BME280;19125;52.360;9.974;2024-01-07T02:29:47;38832.06;;;-145.17;71.25
32759;BME280;19125;52.360;9.974;2024-01-07T02:32:12;40338.31;;;-145.17;70.98
32759;BME280;19125;52.360;9.974;2024-01-07T02:34:37;41845.16;;;-145.17;71.09
32759;BME280;19125;52.360;9.974;2024-01-07T02:37:03;43603.84;;;-145.17;71.08
32759;BME280;19125;52.360;9.974;2024-01-07T02:39:28;45363.34;;;-145.17;70.92
32759;BME280;19125;52.360;9.974;2024-01-07T02:41:55;46620.59;;;-145.17;70.93
32759;BME280;19125;52.360;9.974;2024-01-07T02:44:20;47878.28;;;-145.17;70.69
32759;BME280;19125;52.360;9.974;2024-01-07T02:46:46;49136.31;;;-145.17;70.39
32759;BME280;19125;52.360;9.974;2024-01-07T02:49:14;50143.06;;;-145.17;70.73
32759;BME280;19125;52.360;9.974;2024-01-07T02:51:39;50394.78;;;-145.17;70.64
32759;BME280;19125;52.360;9.974;2024-01-07T02:54:05;51150.06;;;-145.17;70.55
32759;BME280;19125;52.360;9.974;2024-01-07T02:56:30;51653.66;;;-145.17;70.80
32759;BME280;19125;52.360;9.974;2024-01-07T02:58:56;52157.31;;;-145.17;70.50
32759;BME280;19125;52.360;9.974;2024-01-07T03:01:22;53164.81;;;-145.17;70.70
32759;BME280;19125;52.360;9.974;2024-01-07T03:03:48;54172.56;;;-145.17;70.47
32759;BME280;19125;52.360;9.974;2024-01-07T03:06:13;55684.69;;;-145.17;70.40
32759;BME280;19125;52.360;9.974;2024-01-07T03:08:39;57197.41;;;-145.17;70.35
32759;BME280;19125;52.360;9.974;2024-01-07T03:11:05;58710.69;;;-145.17;70.40
32759;BME280;19125;52.360;9.974;2024-01-07T03:13:31;60224.53;;;-145.17;70.25
32759;BME280;19125;52.360;9.974;2024-01-07T03:15:57;62243.91;;;-145.17;69.96
32759;BME280;19125;52.360;9.974;2024-01-07T03:18:22;64011.69;;;-145.17;69.96
32759;BME280;19125;52.360;9.974;2024-01-07T03:20:48;64769.56;;;-145.17;69.99
32759;BME280;19125;52.360;9.974;2024-01-07T03:23:13;65780.28;;;-145.17;69.94
32759;BME280;19125;52.360;9.974;2024-01-07T03:25:38;66791.25;;;-145.17;70.15
32759;BME280;19125;52.360;9.974;2024-01-07T03:28:04;67480.50;;;-145.17;69.96
32759;BME280;19125;52.360;9.974;2024-01-07T03:30:29;68165.94;;;-145.17;69.80
32759;BME280;19125;52.360;9.974;2024-01-07T03:32:55;68582.78;;;-145.17;69.77
32759;BME280;19125;52.360;9.974;2024-01-07T03:35:21;69153.81;;;-145.17;69.84
32759;BME280;19125;52.360;9.974;2024-01-07T03:37:49;69416.63;;;-145.17;69.95
32759;BME280;19125;52.360;9.974;2024-01-07T03:40:15;70211.09;;;-145.17;69.96
32759;BME280;19125;52.360;9.974;2024-01-07T03:42:40;70734.88;;;-145.17;69.85
32759;BME280;19125;52.360;9.974;2024-01-07T03:45:06;71887.50;;;-145.17;69.88
32759;BME280;19125;52.360;9.974;2024-01-07T03:47:31;72907.94;;;-145.17;69.66
32759;BME280;19125;52.360;9.974;2024-01-07T03:49:57;73974.13;;;-145.17;69.71
32759;BME280;19125;52.360;9.974;2024-01-07T03:52:22;74725.97;;;-145.17;69.50
32759;BME280;19125;52.360;9.974;2024-01-07T03:54:48;75764.91;;;-145.17;69.49
32759;BME280;19125;52.360;9.974;2024-01-07T03:57:13;77263.50;;;-145.17;69.45
32759;BME280;19125;52.360;9.974;2024-01-07T03:59:38;79117.19;;;-145.17;69.30
32759;BME280;19125;52.360;9.974;2024-01-07T04:02:04;80686.34;;;-145.17;68.97
32759;BME280;19125;52.360;9.974;2024-01-07T04:04:29;82533.69;;;-145.17;68.79
32759;BME280;19125;52.360;9.974;2024-01-07T04:06:54;83941.56;;;-145.17;68.67
32759;BME280;19125;52.360;9.974;2024-01-07T04:09:19;84965.06;;;-145.17;68.41
32759;BME280;19125;52.360;9.974;2024-01-07T04:11:45;85792.38;;;-145.17;68.16
32759;BME280;19125;52.360;9.974;2024-01-07T04:14:14;86600.03;;;-145.17;67.99
32759;BME280;19125;52.360;9.974;2024-01-07T04:16:39;87179.56;;;-145.17;67.75
32759;BME280;19125;52.360;9.974;2024-01-07T04:19:05;87616.25;;;-145.17;67.51
32759;BME280;19125;52.360;9.974;2024-01-07T04:21:32;88011.31;;;-145.17;67.38
32759;BME280;19125;52.360;9.974;2024-01-07T04:23:57;88263.47;;;-145.17;66.59
32759;BME280;19125;52.360;9.974;2024-01-07T04:26:24;88402.44;;;-145.17;66.44
32759;BME280;19125;52.360;9.974;2024-01-07T04:28:49;88481.84;;;-145.17;66.19
32759;BME280;19125;52.360;9.974;2024-01-07T04:31:15;88553.34;;;-145.17;65.97
32759;BME280;19125;52.360;9.974;2024-01-07T04:33:41;88610.91;;;-145.17;65.92
32759;BME280;19125;52.360;9.974;2024-01-07T04:36:06;88636.72;;;-145.17;65.46
32759;BME280;19125;52.360;9.974;2024-01-07T04:38:32;88610.91;;;-145.17;65.17
32759;BME280;19125;52.360;9.974;2024-01-07T04:40:57;88626.81;;;-145.17;64.93
32759;BME280;19125;52.360;9.974;2024-01-07T04:43:23;88585.09;;;-145.17;64.66
32759;BME280;19125;52.360;9.974;2024-01-07T04:45:48;88581.13;;;-145.17;64.46
32759;BME280;19125;52.360;9.974;2024-01-07T04:48:13;88549.38;;;-145.17;64.23
32759;BME280;19125;52.360;9.974;2024-01-07T04:50:40;88563.25;;;-145.17;63.98
32759;BME280;19125;52.360;9.974;2024-01-07T04:53:07;88551.34;;;-145.17;63.97
32759;BME280;19125;52.360;9.974;2024-01-07T04:55:32;88519.59;;;-145.17;63.88
32759;BME280;19125;52.360;9.974;2024-01-07T04:57:58;88507.66;;;-145.17;63.57
32759;BME280;19125;52.360;9.974;2024-01-07T05:00:23;88559.28;;;-145.17;63.90
32759;BME280;19125;52.360;9.974;2024-01-07T05:02:48;88493.78;;;-145.17;63.60
32759;BME280;19125;52.360;9.974;2024-01-07T05:05:14;88503.69;;;-145.17;63.33
32759;BME280;19125;52.360;9.974;2024-01-07T05:07:39;88505.69;;;-145.17;63.41
32759;BME280;19125;52.360;9.974;2024-01-07T05:10:05;88464.00;;;-145.17;63.19
32759;BME280;19125;52.360;9.974;2024-01-07T05:12:30;88465.97;;;-145.17;63.22
32759;BME280;19125;52.360;9.974;2024-01-07T05:14:56;88456.03;;;-145.17;62.88
32759;BME280;19125;52.360;9.974;2024-01-07T05:17:21;88420.31;;;-145.17;62.93
32759;BME280;19125;52.360;9.974;2024-01-07T05:19:46;88400.44;;;-145.17;62.71
32759;BME280;19125;52.360;9.974;2024-01-07T05:22:12;88378.63;;;-145.17;62.63
32759;BME280;19125;52.360;9.974;2024-01-07T05:24:37;88362.72;;;-145.17;62.29
32759;BME280;19125;52.360;9.974;2024-01-07T05:27:05;88366.69;;;-145.17;62.04
32759;BME280;19125;52.360;9.974;2024-01-07T05:29:31;88352.81;;;-145.17;62.13
32759;BME280;19125;52.360;9.974;2024-01-07T05:31:59;88346.84;;;-145.17;62.00
32759;BME280;19125;52.360;9.974;2024-01-07T05:34:28;88328.97;;;-145.17;61.93
32759;BME280;19125;52.360;9.974;2024-01-07T05:36:53;88366.69;;;-145.17;62.01
32759;BME280;19125;52.360;9.974;2024-01-07T05:39:19;88309.13;;;-145.17;61.63
32759;BME280;19125;52.360;9.974;2024-01-07T05:41:45;88291.25;;;-145.17;61.93
32759;BME280;19125;52.360;9.974;2024-01-07T05:44:11;88297.22;;;-145.17;61.88
32759;BME280;19125;52.360;9.974;2024-01-07T05:46:40;88297.22;;;-145.17;61.59
32759;BME280;19125;52.360;9.974;2024-01-07T05:49:05;88299.19;;;-145.17;61.44
32759;BME280;19125;52.360;9.974;2024-01-07T05:51:31;88275.38;;;-145.17;61.93
32759;BME280;19125;52.360;9.974;2024-01-07T05:53:56;88279.34;;;-145.17;61.56
32759;BME280;19125;52.360;9.974;2024-01-07T05:56:22;88309.13;;;-145.17;61.47
32759;BME280;19125;52.360;9.974;2024-01-07T05:58:47;88279.34;;;-145.17;61.55
32759;BME280;19125;52.360;9.974;2024-01-07T06:01:18;88277.34;;;-145.17;61.40
32759;BME280;19125;52.360;9.974;2024-01-07T06:03:46;88271.41;;;-145.17;61.32
32759;BME280;19125;52.360;9.974;2024-01-07T06:06:13;88223.75;;;-145.17;61.23
32759;BME280;19125;52.360;9.974;2024-01-07T06:08:39;88211.84;;;-145.17;60.99
32759;BME280;19125;52.360;9.974;2024-01-07T06:11:05;88199.91;;;-145.17;61.08
32759;BME280;19125;52.360;9.974;2024-01-07T06:13:30;88193.97;;;-145.17;60.82
32759;BME280;19125;52.360;9.974;2024-01-07T06:15:55;88223.75;;;-145.17;61.04
32759;BME280;19125;52.360;9.974;2024-01-07T06:18:20;88197.94;;;-145.17;60.69
32759;BME280;19125;52.360;9.974;2024-01-07T06:20:46;88243.59;;;-145.17;60.74
32759;BME280;19125;52.360;9.974;2024-01-07T06:23:11;88180.06;;;-145.17;60.42
32759;BME280;19125;52.360;9.974;2024-01-07T06:25:36;88188.00;;;-145.17;60.67
32759;BME280;19125;52.360;9.974;2024-01-07T06:28:02;88168.16;;;-145.17;60.54
32759;BME280;19125;52.360;9.974;2024-01-07T06:30:27;88172.13;;;-145.17;60.41
32759;BME280;19125;52.360;9.974;2024-01-07T06:32:53;88166.16;;;-145.17;60.49
32759;BME280;19125;52.360;9.974;2024-01-07T06:35:18;88160.22;;;-145.17;60.09
32759;BME280;19125;52.360;9.974;2024-01-07T06:37:43;88124.47;;;-145.17;60.20
32759;BME280;19125;52.360;9.974;2024-01-07T06:40:09;88144.34;;;-145.17;60.29
32759;BME280;19125;52.360;9.974;2024-01-07T06:42:36;88116.53;;;-145.17;60.45
32759;BME280;19125;52.360;9.974;2024-01-07T06:45:02;88108.59;;;-145.17;60.08
32759;BME280;19125;52.360;9.974;2024-01-07T06:47:27;88132.41;;;-145.17;60.08
32759;BME280;19125;52.360;9.974;2024-01-07T06:49:53;88122.50;;;-145.17;59.95
32759;BME280;19125;52.360;9.974;2024-01-07T06:52:19;88136.38;;;-145.17;60.29
32759;BME280;19125;52.360;9.974;2024-01-07T06:54:46;88152.28;;;-145.17;60.46
32759;BME280;19125;52.360;9.974;2024-01-07T06:57:11;88132.41;;;-145.17;60.07
32759;BME280;19125;52.360;9.974;2024-01-07T06:59:36;88170.13;;;-145.17;60.68
32759;BME280;19125;52.360;9.974;2024-01-07T07:02:02;88156.25;;;-145.17;60.61
32759;BME280;19125;52.360;9.974;2024-01-07T07:04:27;88184.03;;;-145.17;60.32
32759;BME280;19125;52.360;9.974;2024-01-07T07:06:52;88190.00;;;-145.17;60.58
32759;BME280;19125;52.360;9.974;2024-01-07T07:09:18;88164.19;;;-145.17;60.72
32759;BME280;19125;52.360;9.974;2024-01-07T07:11:44;88180.06;;;-145.17;60.69
32759;BME280;19125;52.360;9.974;2024-01-07T07:14:09;88172.13;;;-145.17;60.62
32759;BME280;19125;52.360;9.974;2024-01-07T07:16:35;88197.94;;;-145.17;61.05
32759;BME280;19125;52.360;9.974;2024-01-07T07:19:00;88217.78;;;-145.17;60.80
32759;BME280;19125;52.360;9.974;2024-01-07T07:21:25;88201.91;;;-145.17;61.21
32759;BME280;19125;52.360;9.974;2024-01-07T07:23:52;88219.78;;;-145.17;61.18
32759;BME280;19125;52.360;9.974;2024-01-07T07:26:18;88219.78;;;-145.17;61.00
32759;BME280;19125;52.360;9.974;2024-01-07T07:28:43;88237.66;;;-145.17;61.31
32759;BME280;19125;52.360;9.974;2024-01-07T07:31:10;88221.75;;;-145.17;61.11
32759;BME280;19125;52.360;9.974;2024-01-07T07:33:38;88221.75;;;-145.17;61.47
32759;BME280;19125;52.360;9.974;2024-01-07T07:36:04;88215.81;;;-145.17;60.99
32759;BME280;19125;52.360;9.974;2024-01-07T07:38:29;88231.69;;;-145.17;61.13
32759;BME280;19125;52.360;9.974;2024-01-07T07:40:55;88243.59;;;-145.17;61.29
32759;BME280;19125;52.360;9.974;2024-01-07T07:43:20;88197.94;;;-145.17;61.18
32759;BME280;19125;52.360;9.974;2024-01-07T07:45:46;88211.84;;;-145.17;61.09
32759;BME280;19125;52.360;9.974;2024-01-07T07:48:11;88231.69;;;-145.17;61.05
32759;BME280;19125;52.360;9.974;2024-01-07T07:50:37;88247.56;;;-145.17;60.86
32759;BME280;19125;52.360;9.974;2024-01-07T07:53:02;88255.50;;;-145.17;61.33
32759;BME280;19125;52.360;9.974;2024-01-07T07:55:28;88239.63;;;-145.17;61.03
32759;BME280;19125;52.360;9.974;2024-01-07T07:57:53;88231.69;;;-145.17;61.00
32759;BME280;19125;52.360;9.974;2024-01-07T08:00:19;88227.72;;;-145.17;61.13
32759;BME280;19125;52.360;9.974;2024-01-07T08:02:44;88251.53;;;-145.17;61.16
32759;BME280;19125;52.360;9.974;2024-01-07T08:05:10;88221.75;;;-145.17;61.06
32759;BME280;19125;52.360;9.974;2024-01-07T08:07:35;88227.72;;;-145.17;60.82
32759;BME280;19125;52.360;9.974;2024-01-07T08:10:00;88213.81;;;-145.17;61.29
32759;BME280;19125;52.360;9.974;2024-01-07T08:12:26;88191.97;;;-145.17;60.92
32759;BME280;19125;52.360;9.974;2024-01-07T08:14:51;88207.88;;;-145.17;60.95
32759;BME280;19125;52.360;9.974;2024-01-07T08:17:17;88225.72;;;-145.17;61.07
32759;BME280;19125;52.360;9.974;2024-01-07T08:19:42;88188.00;;;-145.17;60.96
32759;BME280;19125;52.360;9.974;2024-01-07T08:22:07;88213.81;;;-145.17;60.92
32759;BME280;19125;52.360;9.974;2024-01-07T08:24:34;88213.81;;;-145.17;60.92
32759;BME280;19125;52.360;9.974;2024-01-07T08:27:00;88255.50;;;-145.17;60.82
32759;BME280;19125;52.360;9.974;2024-01-07T08:29:26;88172.13;;;-145.17;60.96
32759;BME280;19125;52.360;9.974;2024-01-07T08:31:51;88168.16;;;-145.17;60.63
32759;BME280;19125;52.360;9.974;2024-01-07T08:34:17;88191.97;;;-145.17;60.74
32759;BME280;19125;52.360;9.974;2024-01-07T08:36:42;88184.03;;;-145.17;60.73
32759;BME280;19125;52.360;9.974;2024-01-07T08:39:08;88195.94;;;-145.17;60.49
32759;BME280;19125;52.360;9.974;2024-01-07T08:41:33;88176.09;;;-145.17;60.67
32759;BME280;19125;52.360;9.974;2024-01-07T08:43:58;88140.38;;;-145.17;60.84
32759;BME280;19125;52.360;9.974;2024-01-07T08:46:24;88195.94;;;-145.17;60.70
32759;BME280;19125;52.360;9.974;2024-01-07T08:48:49;88130.44;;;-145.17;60.58
32759;BME280;19125;52.360;9.974;2024-01-07T08:51:14;88190.00;;;-145.17;60.54
32759;BME280;19125;52.360;9.974;2024-01-07T08:53:40;88166.16;;;-145.17;60.49
32759;BME280;19125;52.360;9.974;2024-01-07T08:56:05;88172.13;;;-145.17;60.54
32759;BME280;19125;52.360;9.974;2024-01-07T08:58:32;88100.66;;;-145.17;60.44
32759;BME280;19125;52.360;9.974;2024-01-07T09:00:57;88138.38;;;-145.17;60.49
32759;BME280;19125;52.360;9.974;2024-01-07T09:03:23;88136.38;;;-145.17;60.64
32759;BME280;19125;52.360;9.974;2024-01-07T09:05:48;88142.34;;;-145.17;60.58
32759;BME280;19125;52.360;9.974;2024-01-07T09:08:13;88128.44;;;-145.17;60.62
32759;BME280;19125;52.360;9.974;2024-01-07T09:10:40;88209.84;;;-145.17;60.49
32759;BME280;19125;52.360;9.974;2024-01-07T09:13:05;88136.38;;;-145.17;60.27
32759;BME280;19125;52.360;9.974;2024-01-07T09:15:31;88144.34;;;-145.17;60.43
32759;BME280;19125;52.360;9.974;2024-01-07T09:17:56;88120.50;;;-145.17;60.50
32759;BME280;19125;52.360;9.974;2024-01-07T09:20:22;88120.50;;;-145.17;60.06
32759;BME280;19125;52.360;9.974;2024-01-07T09:22:47;88144.34;;;-145.17;60.36
32759;BME280;19125;52.360;9.974;2024-01-07T09:25:14;88158.22;;;-145.17;60.56
32759;BME280;19125;52.360;9.974;2024-01-07T09:27:39;88148.31;;;-145.17;60.55
32759;BME280;19125;52.360;9.974;2024-01-07T09:30:05;88148.31;;;-145.17;60.52
32759;BME280;19125;52.360;9.974;2024-01-07T09:32:31;88130.44;;;-145.17;60.52
32759;BME280;19125;52.360;9.974;2024-01-07T09:34:56;88128.44;;;-145.17;60.48
32759;BME280;19125;52.360;9.974;2024-01-07T09:37:23;88130.44;;;-145.17;60.45
32759;BME280;19125;52.360;9.974;2024-01-07T09:39:48;88132.41;;;-145.17;60.34
32759;BME280;19125;52.360;9.974;2024-01-07T09:42:16;88130.44;;;-145.17;60.57
32759;BME280;19125;52.360;9.974;2024-01-07T09:44:42;88136.38;;;-145.17;60.47
32759;BME280;19125;52.360;9.974;2024-01-07T09:47:12;88124.47;;;-145.17;60.58
32759;BME280;19125;52.360;9.974;2024-01-07T09:49:39;88114.56;;;-145.17;60.22
32759;BME280;19125;52.360;9.974;2024-01-07T09:52:04;88142.34;;;-145.17;60.74
32759;BME280;19125;52.360;9.974;2024-01-07T09:54:31;88156.25;;;-145.17;60.31
32759;BME280;19125;52.360;9.974;2024-01-07T09:57:01;88122.50;;;-145.17;60.60
32759;BME280;19125;52.360;9.974;2024-01-07T09:59:28;88112.56;;;-145.17;60.27
32759;BME280;19125;52.360;9.974;2024-01-07T10:01:53;88142.34;;;-145.17;60.45
32759;BME280;19125;52.360;9.974;2024-01-07T10:04:19;88126.47;;;-145.17;60.56
32759;BME280;19125;52.360;9.974;2024-01-07T10:06:44;88132.41;;;-145.17;60.74
32759;BME280;19125;52.360;9.974;2024-01-07T10:09:11;88110.59;;;-145.17;60.45
32759;BME280;19125;52.360;9.974;2024-01-07T10:11:38;88120.50;;;-145.17;60.25
32759;BME280;19125;52.360;9.974;2024-01-07T10:14:04;88140.38;;;-145.17;60.19
32759;BME280;19125;52.360;9.974;2024-01-07T10:16:29;88102.63;;;-145.17;60.09
32759;BME280;19125;52.360;9.974;2024-01-07T10:18:55;88118.53;;;-145.17;60.37
32759;BME280;19125;52.360;9.974;2024-01-07T10:21:20;88092.72;;;-145.17;60.04
32759;BME280;19125;52.360;9.974;2024-01-07T10:23:45;88112.56;;;-145.17;60.12
32759;BME280;19125;52.360;9.974;2024-01-07T10:26:11;88096.69;;;-145.17;60.06
32759;BME280;19125;52.360;9.974;2024-01-07T10:28:37;88082.78;;;-145.17;60.01
32759;BME280;19125;52.360;9.974;2024-01-07T10:31:03;88088.75;;;-145.17;60.08
32759;BME280;19125;52.360;9.974;2024-01-07T10:33:32;88156.25;;;-145.17;59.76
32759;BME280;19125;52.360;9.974;2024-01-07T10:36:05;88120.50;;;-145.17;60.27
32759;BME280;19125;52.360;9.974;2024-01-07T10:38:31;88126.47;;;-145.17;60.05
32759;BME280;19125;52.360;9.974;2024-01-07T10:40:59;88068.88;;;-145.17;59.81
32759;BME280;19125;52.360;9.974;2024-01-07T10:43:26;88096.69;;;-145.17;60.14
32759;BME280;19125;52.360;9.974;2024-01-07T10:45:54;88080.81;;;-145.17;60.05
32759;BME280;19125;52.360;9.974;2024-01-07T10:48:20;88082.78;;;-145.17;59.86
32759;BME280;19125;52.360;9.974;2024-01-07T10:50:47;88076.84;;;-145.17;59.99
32759;BME280;19125;52.360;9.974;2024-01-07T10:53:18;88088.75;;;-145.17;60.16
32759;BME280;19125;52.360;9.974;2024-01-07T10:56:11;88088.75;;;-145.17;60.03
32759;BME280;19125;52.360;9.974;2024-01-07T10:58:36;88096.69;;;-145.17;59.91
32759;BME280;19125;52.360;9.974;2024-01-07T11:01:02;88053.00;;;-145.17;60.13
32759;BME280;19125;52.360;9.974;2024-01-07T11:03:49;88053.00;;;-145.17;60.00
32759;BME280;19125;52.360;9.974;2024-01-07T11:06:26;88070.88;;;-145.17;59.92
32759;BME280;19125;52.360;9.974;2024-01-07T11:09:00;88094.69;;;-145.17;59.84
32759;BME280;19125;52.360;9.974;2024-01-07T11:11:48;88068.88;;;-145.17;60.01
32759;BME280;19125;52.360;9.974;2024-01-07T11:14:39;88076.84;;;-145.17;59.87
32759;BME280;19125;52.360;9.974;2024-01-07T11:17:06;88126.47;;;-145.17;60.35
32759;BME280;19125;52.360;9.974;2024-01-07T11:19:32;88064.91;;;-145.17;60.21
32759;BME280;19125;52.360;9.974;2024-01-07T11:22:24;88108.59;;;-145.17;60.09
32759;BME280;19125;52.360;9.974;2024-01-07T11:24:56;88086.75;;;-145.17;60.25
32759;BME280;19125;52.360;9.974;2024-01-07T11:27:29;88064.91;;;-145.17;60.19
32759;BME280;19125;52.360;9.974;2024-01-07T11:30:04;88094.69;;;-145.17;60.21
32759;BME280;19125;52.360;9.974;2024-01-07T11:32:33;88100.66;;;-145.17;60.28
32759;BME280;19125;52.360;9.974;2024-01-07T11:35:00;88098.66;;;-145.17;60.42
32759;BME280;19125;52.360;9.974;2024-01-07T11:37:26;88096.69;;;-145.17;60.36
32759;BME280;19125;52.360;9.974;2024-01-07T11:39:55;88108.59;;;-145.17;60.31
32759;BME280;19125;52.360;9.974;2024-01-07T11:42:22;88136.38;;;-145.17;60.68
32759;BME280;19125;52.360;9.974;2024-01-07T11:44:52;88128.44;;;-145.17;60.64
32759;BME280;19125;52.360;9.974;2024-01-07T11:47:19;88150.28;;;-145.17;60.49
32759;BME280;19125;52.360;9.974;2024-01-07T11:49:45;88162.19;;;-145.17;60.49
32759;BME280;19125;52.360;9.974;2024-01-07T11:52:10;88156.25;;;-145.17;60.80
32759;BME280;19125;52.360;9.974;2024-01-07T11:54:37;88164.19;;;-145.17;60.81
32759;BME280;19125;52.360;9.974;2024-01-07T11:57:04;88184.03;;;-145.17;60.94
32759;BME280;19125;52.360;9.974;2024-01-07T11:59:29;88191.97;;;-145.17;61.08
32759;BME280;19125;52.360;9.974;2024-01-07T12:01:55;88104.63;;;-145.17;61.17
32759;BME280;19125;52.360;9.974;2024-01-07T12:04:21;88178.09;;;-145.17;60.87
32759;BME280;19125;52.360;9.974;2024-01-07T12:06:48;88180.06;;;-145.17;61.05
32759;BME280;19125;52.360;9.974;2024-01-07T12:09:13;88184.03;;;-145.17;60.94
32759;BME280;19125;52.360;9.974;2024-01-07T12:11:40;88182.06;;;-145.17;60.88
32759;BME280;19125;52.360;9.974;2024-01-07T12:14:07;88190.00;;;-145.17;61.18
32759;BME280;19125;52.360;9.974;2024-01-07T12:16:33;88162.19;;;-145.17;61.12
32759;BME280;19125;52.360;9.974;2024-01-07T12:18:59;88124.47;;;-145.17;60.94
32759;BME280;19125;52.360;9.974;2024-01-07T12:21:24;88186.03;;;-145.17;60.91
32759;BME280;19125;52.360;9.974;2024-01-07T12:23:52;88146.31;;;-145.17;61.17
32759;BME280;19125;52.360;9.974;2024-01-07T12:26:17;88205.88;;;-145.17;60.91
32759;BME280;19125;52.360;9.974;2024-01-07T12:28:44;88170.13;;;-145.17;60.86
32759;BME280;19125;52.360;9.974;2024-01-07T12:31:10;88164.19;;;-145.17;61.05
32759;BME280;19125;52.360;9.974;2024-01-07T12:33:38;88162.19;;;-145.17;60.84
32759;BME280;19125;52.360;9.974;2024-01-07T12:36:06;88166.16;;;-145.17;60.68